Aviation Digital Data Service (ADDS)

Output produced by METARs form (2223 UTC 23 March 2019)
found at http://www.aviationweather.gov/metar/data/
 
METAR text: GMMN 232200Z 11007KT 9999 SCT016 SCT100 19/06 Q1014 NOSIG
Conditions at: GMMN (NOUASSEUR/CASABL, MA) observed 2200 UTC 23 March 2019
Temperature: 19.0°C (66°F)
Dewpoint: 6.0°C (43°F) [RH = 43%]
Pressure (altimeter): 29.94 inches Hg (1014.0 mb)
Winds: from the ESE (110 degrees) at 8 MPH (7 knots; 3.6 m/s)
Visibility: 6 or more miles (10+ km)
Ceiling: at least 12,000 feet AGL
Clouds: scattered clouds at 1600 feet AGL
scattered clouds at 10000 feet AGL
Weather: no significant weather observed at this time

METAR text: GMMN 232130Z 10008KT 9999 SCT016 SCT100 20/05 Q1014 NOSIG
Conditions at: GMMN (NOUASSEUR/CASABL, MA) observed 2130 UTC 23 March 2019
Temperature: 20.0°C (68°F)
Dewpoint: 5.0°C (41°F) [RH = 37%]
Pressure (altimeter): 29.94 inches Hg (1014.0 mb)
Winds: from the E (100 degrees) at 9 MPH (8 knots; 4.1 m/s)
Visibility: 6 or more miles (10+ km)
Ceiling: at least 12,000 feet AGL
Clouds: scattered clouds at 1600 feet AGL
scattered clouds at 10000 feet AGL
Weather: no significant weather observed at this time

METAR text: GMMN 232100Z AUTO 08006KT CAVOK 20/06 Q1014
Conditions at: GMMN (NOUASSEUR/CASABL, MA) observed 2100 UTC 23 March 2019
Temperature: 20.0°C (68°F)
Dewpoint: 6.0°C (43°F) [RH = 40%]
Pressure (altimeter): 29.94 inches Hg (1014.0 mb)
Winds: from the E (80 degrees) at 7 MPH (6 knots; 3.1 m/s)
Visibility: 6 or more miles (10+ km)
Ceiling: ceiling and visibility are OK
Clouds: unknown
Weather: no significant weather observed at this time

METAR text: GMMN 232030Z 10006KT 9999 SCT040TCU BKN100 19/07 Q1014 NOSIG
Conditions at: GMMN (NOUASSEUR/CASABL, MA) observed 2030 UTC 23 March 2019
Temperature: 19.0°C (66°F)
Dewpoint: 7.0°C (45°F) [RH = 46%]
Pressure (altimeter): 29.94 inches Hg (1014.0 mb)
Winds: from the E (100 degrees) at 7 MPH (6 knots; 3.1 m/s)
Visibility: 6 or more miles (10+ km)
Ceiling: 10000 feet AGL
Clouds: scattered clouds at 4000 feet AGL
broken clouds at 10000 feet AGL
Weather: no significant weather observed at this time

METAR text: GMMN 232000Z 07005KT 040V120 9999 SCT040TCU BKN100 19/07 Q1014 NOSIG
Conditions at: GMMN (NOUASSEUR/CASABL, MA) observed 2000 UTC 23 March 2019
Temperature: 19.0°C (66°F)
Dewpoint: 7.0°C (45°F) [RH = 46%]
Pressure (altimeter): 29.94 inches Hg (1014.0 mb)
Winds: from the ENE (70 degrees) at 6 MPH (5 knots; 2.6 m/s)
Visibility: 6 or more miles (10+ km)
Ceiling: 10000 feet AGL
Clouds: scattered clouds at 4000 feet AGL
broken clouds at 10000 feet AGL
Weather: no significant weather observed at this time

METAR text: GMMN 231930Z 15007KT 9999 SCT040TCU BKN100 19/07 Q1014 TEMPO 23012G24KT
Conditions at: GMMN (NOUASSEUR/CASABL, MA) observed 1930 UTC 23 March 2019
Temperature: 19.0°C (66°F)
Dewpoint: 7.0°C (45°F) [RH = 46%]
Pressure (altimeter): 29.94 inches Hg (1014.0 mb)
Winds: from the SSE (150 degrees) at 8 MPH (7 knots; 3.6 m/s)
Visibility: 6 or more miles (10+ km)
Ceiling: 10000 feet AGL
Clouds: scattered clouds at 4000 feet AGL
broken clouds at 10000 feet AGL
Weather: no significant weather observed at this time

METAR text: GMMN 231900Z 12006KT 9999 SCT040TCU BKN100 20/07 Q1014 TEMPO 23012G24KT
Conditions at: GMMN (NOUASSEUR/CASABL, MA) observed 1900 UTC 23 March 2019
Temperature: 20.0°C (68°F)
Dewpoint: 7.0°C (45°F) [RH = 43%]
Pressure (altimeter): 29.94 inches Hg (1014.0 mb)
Winds: from the ESE (120 degrees) at 7 MPH (6 knots; 3.1 m/s)
Visibility: 6 or more miles (10+ km)
Ceiling: 10000 feet AGL
Clouds: scattered clouds at 4000 feet AGL
broken clouds at 10000 feet AGL
Weather: no significant weather observed at this time

METAR text: GMMN 231830Z 22016G26KT 190V260 9999 SCT040CB BKN080 21/06 Q1014 TEMPO 20014KT SCT030TCU
Conditions at: GMMN (NOUASSEUR/CASABL, MA) observed 1830 UTC 23 March 2019
Temperature: 21.0°C (70°F)
Dewpoint: 6.0°C (43°F) [RH = 38%]
Pressure (altimeter): 29.94 inches Hg (1014.0 mb)
Winds: from the SW (220 degrees) at 18 MPH (16 knots; 8.2 m/s)
gusting to 30 MPH (26 knots; 13.4 m/s)
Visibility: 6 or more miles (10+ km)
Ceiling: 8000 feet AGL
Clouds: scattered clouds at 4000 feet AGL
broken clouds at 8000 feet AGL
Weather: no significant weather observed at this time

METAR text: GMMN 231800Z 22016G26KT 190V260 9999 SCT040CB BKN080 21/06 Q1014 TEMPO 20014KT SCT030TCU
Conditions at: GMMN (NOUASSEUR/CASABL, MA) observed 1800 UTC 23 March 2019
Temperature: 21.0°C (70°F)
Dewpoint: 6.0°C (43°F) [RH = 38%]
Pressure (altimeter): 29.94 inches Hg (1014.0 mb)
Winds: from the SW (220 degrees) at 18 MPH (16 knots; 8.2 m/s)
gusting to 30 MPH (26 knots; 13.4 m/s)
Visibility: 6 or more miles (10+ km)
Ceiling: 8000 feet AGL
Clouds: scattered clouds at 4000 feet AGL
broken clouds at 8000 feet AGL
Weather: no significant weather observed at this time

METAR text: GMMN 231750Z 22021G35KT 9999 SCT040CB BKN080 21/08 Q1014 TEMPO SPECI 20014KT SCT030TCU
Conditions at: GMMN (NOUASSEUR/CASABL, MA) observed 1750 UTC 23 March 2019
Temperature: 21.0°C (70°F)
Dewpoint: 8.0°C (46°F) [RH = 43%]
Pressure (altimeter): 29.94 inches Hg (1014.0 mb)
Winds: from the SW (220 degrees) at 24 MPH (21 knots; 10.8 m/s)
gusting to 40 MPH (35 knots; 18.0 m/s)
Visibility: 6 or more miles (10+ km)
Ceiling: 8000 feet AGL
Clouds: scattered clouds at 4000 feet AGL
broken clouds at 8000 feet AGL
Weather: no significant weather observed at this time

METAR text: GMMN 231748Z 23019G35KT 9999 SCT040TCU BKN080 21/08 Q1014 TEMPO 16015G28KT SCT030CB
Conditions at: GMMN (NOUASSEUR/CASABL, MA) observed 1748 UTC 23 March 2019
Temperature: 21.0°C (70°F)
Dewpoint: 8.0°C (46°F) [RH = 43%]
Pressure (altimeter): 29.94 inches Hg (1014.0 mb)
Winds: from the SW (230 degrees) at 22 MPH (19 knots; 9.8 m/s)
gusting to 40 MPH (35 knots; 18.0 m/s)
Visibility: 6 or more miles (10+ km)
Ceiling: 8000 feet AGL
Clouds: scattered clouds at 4000 feet AGL
broken clouds at 8000 feet AGL
Weather: no significant weather observed at this time

METAR text: GMMN 231730Z 23012G24KT 190V300 9999 SCT040TCU BKN080 22/05 Q1014 TEMPO 16015G28KT SCT030CB
Conditions at: GMMN (NOUASSEUR/CASABL, MA) observed 1730 UTC 23 March 2019
Temperature: 22.0°C (72°F)
Dewpoint: 5.0°C (41°F) [RH = 33%]
Pressure (altimeter): 29.94 inches Hg (1014.0 mb)
Winds: from the SW (230 degrees) at 14 MPH (12 knots; 6.2 m/s)
gusting to 28 MPH (24 knots; 12.3 m/s)
Visibility: 6 or more miles (10+ km)
Ceiling: 8000 feet AGL
Clouds: scattered clouds at 4000 feet AGL
broken clouds at 8000 feet AGL
Weather: no significant weather observed at this time

METAR text: GMMN 231709Z VRB08G21KT 9999 RA SCT030CB BKN080 23/04 Q1013 NOSIG
Conditions at: GMMN (NOUASSEUR/CASABL, MA) observed 1709 UTC 23 March 2019
Temperature: 23.0°C (73°F)
Dewpoint: 4.0°C (39°F) [RH = 29%]
Pressure (altimeter): 29.91 inches Hg (1013.0 mb)
Winds: variable direction winds at 9 MPH (8 knots; 4.1 m/s)
gusting to 24 MPH (21 knots; 10.8 m/s)
Visibility: 6 or more miles (10+ km)
Ceiling: 8000 feet AGL
Clouds: scattered clouds at 3000 feet AGL
broken clouds at 8000 feet AGL
Weather: RA  (moderate rain)

METAR text: GMMN 231700Z 13005KT 090V170 CAVOK 22/03 Q1012 NOSIG
Conditions at: GMMN (NOUASSEUR/CASABL, MA) observed 1700 UTC 23 March 2019
Temperature: 22.0°C (72°F)
Dewpoint: 3.0°C (37°F) [RH = 29%]
Pressure (altimeter): 29.88 inches Hg (1012.0 mb)
Winds: from the SE (130 degrees) at 6 MPH (5 knots; 2.6 m/s)
Visibility: 6 or more miles (10+ km)
Ceiling: ceiling and visibility are OK
Clouds: unknown
Weather: no significant weather observed at this time

METAR text: GMMN 231630Z 01012KT CAVOK 22/03 Q1012 NOSIG
Conditions at: GMMN (NOUASSEUR/CASABL, MA) observed 1630 UTC 23 March 2019
Temperature: 22.0°C (72°F)
Dewpoint: 3.0°C (37°F) [RH = 29%]
Pressure (altimeter): 29.88 inches Hg (1012.0 mb)
Winds: from the N (10 degrees) at 14 MPH (12 knots; 6.2 m/s)
Visibility: 6 or more miles (10+ km)
Ceiling: ceiling and visibility are OK
Clouds: unknown
Weather: no significant weather observed at this time

METAR text: GMMN 231600Z 34009KT 300V040 CAVOK 22/04 Q1012 NOSIG
Conditions at: GMMN (NOUASSEUR/CASABL, MA) observed 1600 UTC 23 March 2019
Temperature: 22.0°C (72°F)
Dewpoint: 4.0°C (39°F) [RH = 31%]
Pressure (altimeter): 29.88 inches Hg (1012.0 mb)
Winds: from the NNW (340 degrees) at 10 MPH (9 knots; 4.6 m/s)
Visibility: 6 or more miles (10+ km)
Ceiling: ceiling and visibility are OK
Clouds: unknown
Weather: no significant weather observed at this time

METAR text: GMMN 231530Z 01009KT CAVOK 23/04 Q1012 NOSIG
Conditions at: GMMN (NOUASSEUR/CASABL, MA) observed 1530 UTC 23 March 2019
Temperature: 23.0°C (73°F)
Dewpoint: 4.0°C (39°F) [RH = 29%]
Pressure (altimeter): 29.88 inches Hg (1012.0 mb)
Winds: from the N (10 degrees) at 10 MPH (9 knots; 4.6 m/s)
Visibility: 6 or more miles (10+ km)
Ceiling: ceiling and visibility are OK
Clouds: unknown
Weather: no significant weather observed at this time

METAR text: GMMN 231500Z 03010KT 360V100 CAVOK 23/04 Q1012 NOSIG
Conditions at: GMMN (NOUASSEUR/CASABL, MA) observed 1500 UTC 23 March 2019
Temperature: 23.0°C (73°F)
Dewpoint: 4.0°C (39°F) [RH = 29%]
Pressure (altimeter): 29.88 inches Hg (1012.0 mb)
Winds: from the NNE (30 degrees) at 12 MPH (10 knots; 5.1 m/s)
Visibility: 6 or more miles (10+ km)
Ceiling: ceiling and visibility are OK
Clouds: unknown
Weather: no significant weather observed at this time

METAR text: GMMN 231430Z 01012KT CAVOK 25/04 Q1012 NOSIG
Conditions at: GMMN (NOUASSEUR/CASABL, MA) observed 1430 UTC 23 March 2019
Temperature: 25.0°C (77°F)
Dewpoint: 4.0°C (39°F) [RH = 26%]
Pressure (altimeter): 29.88 inches Hg (1012.0 mb)
Winds: from the N (10 degrees) at 14 MPH (12 knots; 6.2 m/s)
Visibility: 6 or more miles (10+ km)
Ceiling: ceiling and visibility are OK
Clouds: unknown
Weather: no significant weather observed at this time

METAR text: GMMN 231400Z /////KT CAVOK 26/05 Q1012 NOSIG
Conditions at: GMMN (NOUASSEUR/CASABL, MA) observed 1400 UTC 23 March 2019
Temperature: 26.0°C (79°F)
Dewpoint: 5.0°C (41°F) [RH = 26%]
Pressure (altimeter): 29.88 inches Hg (1012.0 mb)
Winds: missing
Visibility: 6 or more miles (10+ km)
Ceiling: ceiling and visibility are OK
Clouds: unknown
Weather: no significant weather observed at this time

METAR text: GMMN 231330Z 34016KT CAVOK 27/07 Q1012 NOSIG
Conditions at: GMMN (NOUASSEUR/CASABL, MA) observed 1330 UTC 23 March 2019
Temperature: 27.0°C (81°F)
Dewpoint: 7.0°C (45°F) [RH = 28%]
Pressure (altimeter): 29.88 inches Hg (1012.0 mb)
Winds: from the NNW (340 degrees) at 18 MPH (16 knots; 8.2 m/s)
Visibility: 6 or more miles (10+ km)
Ceiling: ceiling and visibility are OK
Clouds: unknown
Weather: no significant weather observed at this time

METAR text: GMMN 231300Z 27006KT 240V330 CAVOK 28/M01 Q1012 NOSIG
Conditions at: GMMN (NOUASSEUR/CASABL, MA) observed 1300 UTC 23 March 2019
Temperature: 28.0°C (82°F)
Dewpoint: -1.0°C (30°F) [RH = 15%]
Pressure (altimeter): 29.88 inches Hg (1012.0 mb)
Winds: from the W (270 degrees) at 7 MPH (6 knots; 3.1 m/s)
Visibility: 6 or more miles (10+ km)
Ceiling: ceiling and visibility are OK
Clouds: unknown
Weather: no significant weather observed at this time

METAR text: GMMN 231230Z 21008KT 180V280 CAVOK 28/M01 Q1012 NOSIG
Conditions at: GMMN (NOUASSEUR/CASABL, MA) observed 1230 UTC 23 March 2019
Temperature: 28.0°C (82°F)
Dewpoint: -1.0°C (30°F) [RH = 15%]
Pressure (altimeter): 29.88 inches Hg (1012.0 mb)
Winds: from the SSW (210 degrees) at 9 MPH (8 knots; 4.1 m/s)
Visibility: 6 or more miles (10+ km)
Ceiling: ceiling and visibility are OK
Clouds: unknown
Weather: no significant weather observed at this time

METAR text: GMMN 231200Z 18009KT 140V230 CAVOK 28/M00 Q1013 NOSIG
Conditions at: GMMN (NOUASSEUR/CASABL, MA) observed 1200 UTC 23 March 2019
Temperature: 28.0°C (82°F)
Dewpoint: 0.0°C (32°F) [RH = 16%]
Pressure (altimeter): 29.91 inches Hg (1013.0 mb)
Winds: from the S (180 degrees) at 10 MPH (9 knots; 4.6 m/s)
Visibility: 6 or more miles (10+ km)
Ceiling: ceiling and visibility are OK
Clouds: unknown
Weather: no significant weather observed at this time

METAR text: GMMN 231130Z VRB03KT CAVOK 27/00 Q1013 NOSIG
Conditions at: GMMN (NOUASSEUR/CASABL, MA) observed 1130 UTC 23 March 2019
Temperature: 27.0°C (81°F)
Dewpoint: 0.0°C (32°F) [RH = 17%]
Pressure (altimeter): 29.91 inches Hg (1013.0 mb)
Winds: variable direction winds at 3 MPH (3 knots; 1.5 m/s)
Visibility: 6 or more miles (10+ km)
Ceiling: ceiling and visibility are OK
Clouds: unknown
Weather: no significant weather observed at this time

METAR text: GMMN 231100Z 19003KT 080V230 CAVOK 26/03 Q1014 NOSIG
Conditions at: GMMN (NOUASSEUR/CASABL, MA) observed 1100 UTC 23 March 2019
Temperature: 26.0°C (79°F)
Dewpoint: 3.0°C (37°F) [RH = 23%]
Pressure (altimeter): 29.94 inches Hg (1014.0 mb)
Winds: from the S (190 degrees) at 3 MPH (3 knots; 1.5 m/s)
Visibility: 6 or more miles (10+ km)
Ceiling: ceiling and visibility are OK
Clouds: unknown
Weather: no significant weather observed at this time

METAR text: GMMN 231030Z VRB02KT CAVOK 25/02 Q1014 NOSIG
Conditions at: GMMN (NOUASSEUR/CASABL, MA) observed 1030 UTC 23 March 2019
Temperature: 25.0°C (77°F)
Dewpoint: 2.0°C (36°F) [RH = 22%]
Pressure (altimeter): 29.94 inches Hg (1014.0 mb)
Winds: variable direction winds at 2 MPH (2 knots; 1.0 m/s)
Visibility: 6 or more miles (10+ km)
Ceiling: ceiling and visibility are OK
Clouds: unknown
Weather: no significant weather observed at this time

METAR text: GMMN 231000Z 00000KT CAVOK 23/02 Q1014 NOSIG
Conditions at: GMMN (NOUASSEUR/CASABL, MA) observed 1000 UTC 23 March 2019
Temperature: 23.0°C (73°F)
Dewpoint: 2.0°C (36°F) [RH = 25%]
Pressure (altimeter): 29.94 inches Hg (1014.0 mb)
Winds: calm
Visibility: 6 or more miles (10+ km)
Ceiling: ceiling and visibility are OK
Clouds: unknown
Weather: no significant weather observed at this time

METAR text: GMMN 230930Z 07004KT CAVOK 20/03 Q1014 NOSIG
Conditions at: GMMN (NOUASSEUR/CASABL, MA) observed 0930 UTC 23 March 2019
Temperature: 20.0°C (68°F)
Dewpoint: 3.0°C (37°F) [RH = 32%]
Pressure (altimeter): 29.94 inches Hg (1014.0 mb)
Winds: from the ENE (70 degrees) at 5 MPH (4 knots; 2.1 m/s)
Visibility: 6 or more miles (10+ km)
Ceiling: ceiling and visibility are OK
Clouds: unknown
Weather: no significant weather observed at this time

METAR text: GMMN 230900Z VRB02KT 9999 FEW016 SCT200 19/05 Q1014 NOSIG
Conditions at: GMMN (NOUASSEUR/CASABL, MA) observed 0900 UTC 23 March 2019
Temperature: 19.0°C (66°F)
Dewpoint: 5.0°C (41°F) [RH = 40%]
Pressure (altimeter): 29.94 inches Hg (1014.0 mb)
Winds: variable direction winds at 2 MPH (2 knots; 1.0 m/s)
Visibility: 6 or more miles (10+ km)
Ceiling: at least 12,000 feet AGL
Clouds: few clouds at 1600 feet AGL
scattered clouds at 20000 feet AGL
Weather: no significant weather observed at this time

METAR text: GMMN 230830Z 10003KT 9999 FEW016 SCT200 15/08 Q1014 NOSIG
Conditions at: GMMN (NOUASSEUR/CASABL, MA) observed 0830 UTC 23 March 2019
Temperature: 15.0°C (59°F)
Dewpoint: 8.0°C (46°F) [RH = 63%]
Pressure (altimeter): 29.94 inches Hg (1014.0 mb)
Winds: from the E (100 degrees) at 3 MPH (3 knots; 1.5 m/s)
Visibility: 6 or more miles (10+ km)
Ceiling: at least 12,000 feet AGL
Clouds: few clouds at 1600 feet AGL
scattered clouds at 20000 feet AGL
Weather: no significant weather observed at this time

METAR text: GMMN 230800Z 10004KT 9999 FEW016 SCT200 11/08 Q1014 NOSIG
Conditions at: GMMN (NOUASSEUR/CASABL, MA) observed 0800 UTC 23 March 2019
Temperature: 11.0°C (52°F)
Dewpoint: 8.0°C (46°F) [RH = 82%]
Pressure (altimeter): 29.94 inches Hg (1014.0 mb)
Winds: from the E (100 degrees) at 5 MPH (4 knots; 2.1 m/s)
Visibility: 6 or more miles (10+ km)
Ceiling: at least 12,000 feet AGL
Clouds: few clouds at 1600 feet AGL
scattered clouds at 20000 feet AGL
Weather: no significant weather observed at this time

METAR text: GMMN 230730Z 09005KT CAVOK 09/07 Q1014 NOSIG
Conditions at: GMMN (NOUASSEUR/CASABL, MA) observed 0730 UTC 23 March 2019
Temperature: 9.0°C (48°F)
Dewpoint: 7.0°C (45°F) [RH = 87%]
Pressure (altimeter): 29.94 inches Hg (1014.0 mb)
Winds: from the E (90 degrees) at 6 MPH (5 knots; 2.6 m/s)
Visibility: 6 or more miles (10+ km)
Ceiling: ceiling and visibility are OK
Clouds: unknown
Weather: no significant weather observed at this time

METAR text: GMMN 230700Z 14005KT CAVOK 08/06 Q1014 NOSIG
Conditions at: GMMN (NOUASSEUR/CASABL, MA) observed 0700 UTC 23 March 2019
Temperature: 8.0°C (46°F)
Dewpoint: 6.0°C (43°F) [RH = 87%]
Pressure (altimeter): 29.94 inches Hg (1014.0 mb)
Winds: from the SE (140 degrees) at 6 MPH (5 knots; 2.6 m/s)
Visibility: 6 or more miles (10+ km)
Ceiling: ceiling and visibility are OK
Clouds: unknown
Weather: no significant weather observed at this time

METAR text: GMMN 230630Z 13004KT CAVOK 08/07 Q1014 NOSIG
Conditions at: GMMN (NOUASSEUR/CASABL, MA) observed 0630 UTC 23 March 2019
Temperature: 8.0°C (46°F)
Dewpoint: 7.0°C (45°F) [RH = 93%]
Pressure (altimeter): 29.94 inches Hg (1014.0 mb)
Winds: from the SE (130 degrees) at 5 MPH (4 knots; 2.1 m/s)
Visibility: 6 or more miles (10+ km)
Ceiling: ceiling and visibility are OK
Clouds: unknown
Weather: no significant weather observed at this time

METAR text: GMMN 230600Z 15005KT CAVOK 08/06 Q1014 NOSIG
Conditions at: GMMN (NOUASSEUR/CASABL, MA) observed 0600 UTC 23 March 2019
Temperature: 8.0°C (46°F)
Dewpoint: 6.0°C (43°F) [RH = 87%]
Pressure (altimeter): 29.94 inches Hg (1014.0 mb)
Winds: from the SSE (150 degrees) at 6 MPH (5 knots; 2.6 m/s)
Visibility: 6 or more miles (10+ km)
Ceiling: ceiling and visibility are OK
Clouds: unknown
Weather: no significant weather observed at this time

METAR text: GMMN 230530Z 17005KT CAVOK 08/07 Q1014 NOSIG
Conditions at: GMMN (NOUASSEUR/CASABL, MA) observed 0530 UTC 23 March 2019
Temperature: 8.0°C (46°F)
Dewpoint: 7.0°C (45°F) [RH = 93%]
Pressure (altimeter): 29.94 inches Hg (1014.0 mb)
Winds: from the S (170 degrees) at 6 MPH (5 knots; 2.6 m/s)
Visibility: 6 or more miles (10+ km)
Ceiling: ceiling and visibility are OK
Clouds: unknown
Weather: no significant weather observed at this time

METAR text: GMMN 230500Z 16005KT CAVOK 07/06 Q1014 NOSIG
Conditions at: GMMN (NOUASSEUR/CASABL, MA) observed 0500 UTC 23 March 2019
Temperature: 7.0°C (45°F)
Dewpoint: 6.0°C (43°F) [RH = 93%]
Pressure (altimeter): 29.94 inches Hg (1014.0 mb)
Winds: from the SSE (160 degrees) at 6 MPH (5 knots; 2.6 m/s)
Visibility: 6 or more miles (10+ km)
Ceiling: ceiling and visibility are OK
Clouds: unknown
Weather: no significant weather observed at this time

METAR text: GMMN 230430Z 21002KT CAVOK 07/06 Q1014 NOSIG
Conditions at: GMMN (NOUASSEUR/CASABL, MA) observed 0430 UTC 23 March 2019
Temperature: 7.0°C (45°F)
Dewpoint: 6.0°C (43°F) [RH = 93%]
Pressure (altimeter): 29.94 inches Hg (1014.0 mb)
Winds: from the SSW (210 degrees) at 2 MPH (2 knots; 1.0 m/s)
Visibility: 6 or more miles (10+ km)
Ceiling: ceiling and visibility are OK
Clouds: unknown
Weather: no significant weather observed at this time

METAR text: GMMN 230400Z 18004KT 170V230 CAVOK 07/06 Q1014 NOSIG
Conditions at: GMMN (NOUASSEUR/CASABL, MA) observed 0400 UTC 23 March 2019
Temperature: 7.0°C (45°F)
Dewpoint: 6.0°C (43°F) [RH = 93%]
Pressure (altimeter): 29.94 inches Hg (1014.0 mb)
Winds: from the S (180 degrees) at 5 MPH (4 knots; 2.1 m/s)
Visibility: 6 or more miles (10+ km)
Ceiling: ceiling and visibility are OK
Clouds: unknown
Weather: no significant weather observed at this time

METAR text: GMMN 230330Z 17002KT CAVOK 08/06 Q1014 NOSIG
Conditions at: GMMN (NOUASSEUR/CASABL, MA) observed 0330 UTC 23 March 2019
Temperature: 8.0°C (46°F)
Dewpoint: 6.0°C (43°F) [RH = 87%]
Pressure (altimeter): 29.94 inches Hg (1014.0 mb)
Winds: from the S (170 degrees) at 2 MPH (2 knots; 1.0 m/s)
Visibility: 6 or more miles (10+ km)
Ceiling: ceiling and visibility are OK
Clouds: unknown
Weather: no significant weather observed at this time

METAR text: GMMN 230300Z 14002KT CAVOK 09/07 Q1014 NOSIG
Conditions at: GMMN (NOUASSEUR/CASABL, MA) observed 0300 UTC 23 March 2019
Temperature: 9.0°C (48°F)
Dewpoint: 7.0°C (45°F) [RH = 87%]
Pressure (altimeter): 29.94 inches Hg (1014.0 mb)
Winds: from the SE (140 degrees) at 2 MPH (2 knots; 1.0 m/s)
Visibility: 6 or more miles (10+ km)
Ceiling: ceiling and visibility are OK
Clouds: unknown
Weather: no significant weather observed at this time

METAR text: GMMN 230230Z VRB02KT CAVOK 09/07 Q1014 NOSIG
Conditions at: GMMN (NOUASSEUR/CASABL, MA) observed 0230 UTC 23 March 2019
Temperature: 9.0°C (48°F)
Dewpoint: 7.0°C (45°F) [RH = 87%]
Pressure (altimeter): 29.94 inches Hg (1014.0 mb)
Winds: variable direction winds at 2 MPH (2 knots; 1.0 m/s)
Visibility: 6 or more miles (10+ km)
Ceiling: ceiling and visibility are OK
Clouds: unknown
Weather: no significant weather observed at this time

METAR text: GMMN 230200Z 11003KT 080V150 CAVOK 09/08 Q1015 NOSIG
Conditions at: GMMN (NOUASSEUR/CASABL, MA) observed 0200 UTC 23 March 2019
Temperature: 9.0°C (48°F)
Dewpoint: 8.0°C (46°F) [RH = 93%]
Pressure (altimeter): 29.97 inches Hg (1015.0 mb)
Winds: from the ESE (110 degrees) at 3 MPH (3 knots; 1.5 m/s)
Visibility: 6 or more miles (10+ km)
Ceiling: ceiling and visibility are OK
Clouds: unknown
Weather: no significant weather observed at this time

METAR text: GMMN 230130Z VRB02KT CAVOK 09/08 Q1015 NOSIG
Conditions at: GMMN (NOUASSEUR/CASABL, MA) observed 0130 UTC 23 March 2019
Temperature: 9.0°C (48°F)
Dewpoint: 8.0°C (46°F) [RH = 93%]
Pressure (altimeter): 29.97 inches Hg (1015.0 mb)
Winds: variable direction winds at 2 MPH (2 knots; 1.0 m/s)
Visibility: 6 or more miles (10+ km)
Ceiling: ceiling and visibility are OK
Clouds: unknown
Weather: no significant weather observed at this time

METAR text: GMMN 230100Z 36003KT 240V040 CAVOK 10/09 Q1015 NOSIG
Conditions at: GMMN (NOUASSEUR/CASABL, MA) observed 0100 UTC 23 March 2019
Temperature: 10.0°C (50°F)
Dewpoint: 9.0°C (48°F) [RH = 93%]
Pressure (altimeter): 29.97 inches Hg (1015.0 mb)
Winds: from the N (360 degrees) at 3 MPH (3 knots; 1.5 m/s)
Visibility: 6 or more miles (10+ km)
Ceiling: ceiling and visibility are OK
Clouds: unknown
Weather: no significant weather observed at this time

METAR text: GMMN 230030Z 18003KT CAVOK 10/08 Q1015 NOSIG
Conditions at: GMMN (NOUASSEUR/CASABL, MA) observed 0030 UTC 23 March 2019
Temperature: 10.0°C (50°F)
Dewpoint: 8.0°C (46°F) [RH = 87%]
Pressure (altimeter): 29.97 inches Hg (1015.0 mb)
Winds: from the S (180 degrees) at 3 MPH (3 knots; 1.5 m/s)
Visibility: 6 or more miles (10+ km)
Ceiling: ceiling and visibility are OK
Clouds: unknown
Weather: no significant weather observed at this time

METAR text: GMMN 230000Z 17006KT CAVOK 11/08 Q1015 NOSIG
Conditions at: GMMN (NOUASSEUR/CASABL, MA) observed 0000 UTC 23 March 2019
Temperature: 11.0°C (52°F)
Dewpoint: 8.0°C (46°F) [RH = 82%]
Pressure (altimeter): 29.97 inches Hg (1015.0 mb)
Winds: from the S (170 degrees) at 7 MPH (6 knots; 3.1 m/s)
Visibility: 6 or more miles (10+ km)
Ceiling: ceiling and visibility are OK
Clouds: unknown
Weather: no significant weather observed at this time

METAR text: GMMN 222330Z 15005KT CAVOK 11/08 Q1015 NOSIG
Conditions at: GMMN (NOUASSEUR/CASABL, MA) observed 2330 UTC 22 March 2019
Temperature: 11.0°C (52°F)
Dewpoint: 8.0°C (46°F) [RH = 82%]
Pressure (altimeter): 29.97 inches Hg (1015.0 mb)
Winds: from the SSE (150 degrees) at 6 MPH (5 knots; 2.6 m/s)
Visibility: 6 or more miles (10+ km)
Ceiling: ceiling and visibility are OK
Clouds: unknown
Weather: no significant weather observed at this time

METAR text: GMMN 222300Z 15006KT CAVOK 12/09 Q1015 NOSIG
Conditions at: GMMN (NOUASSEUR/CASABL, MA) observed 2300 UTC 22 March 2019
Temperature: 12.0°C (54°F)
Dewpoint: 9.0°C (48°F) [RH = 82%]
Pressure (altimeter): 29.97 inches Hg (1015.0 mb)
Winds: from the SSE (150 degrees) at 7 MPH (6 knots; 3.1 m/s)
Visibility: 6 or more miles (10+ km)
Ceiling: ceiling and visibility are OK
Clouds: unknown
Weather: no significant weather observed at this time

METAR text: GMMN 222230Z 15005KT CAVOK 12/09 Q1016 NOSIG
Conditions at: GMMN (NOUASSEUR/CASABL, MA) observed 2230 UTC 22 March 2019
Temperature: 12.0°C (54°F)
Dewpoint: 9.0°C (48°F) [RH = 82%]
Pressure (altimeter): 30.00 inches Hg (1016.0 mb)
Winds: from the SSE (150 degrees) at 6 MPH (5 knots; 2.6 m/s)
Visibility: 6 or more miles (10+ km)
Ceiling: ceiling and visibility are OK
Clouds: unknown
Weather: no significant weather observed at this time

METAR text: GMMN 222200Z 08003KT 060V140 CAVOK 15/10 Q1016 NOSIG
Conditions at: GMMN (NOUASSEUR/CASABL, MA) observed 2200 UTC 22 March 2019
Temperature: 15.0°C (59°F)
Dewpoint: 10.0°C (50°F) [RH = 72%]
Pressure (altimeter): 30.00 inches Hg (1016.0 mb)
Winds: from the E (80 degrees) at 3 MPH (3 knots; 1.5 m/s)
Visibility: 6 or more miles (10+ km)
Ceiling: ceiling and visibility are OK
Clouds: unknown
Weather: no significant weather observed at this time

METAR text: GMMN 222130Z /////KT CAVOK 15/11 Q1016 NOSIG
Conditions at: GMMN (NOUASSEUR/CASABL, MA) observed 2130 UTC 22 March 2019
Temperature: 15.0°C (59°F)
Dewpoint: 11.0°C (52°F) [RH = 77%]
Pressure (altimeter): 30.00 inches Hg (1016.0 mb)
Winds: missing
Visibility: 6 or more miles (10+ km)
Ceiling: ceiling and visibility are OK
Clouds: unknown
Weather: no significant weather observed at this time

METAR text: GMMN 222100Z VRB02KT CAVOK 14/11 Q1016 NOSIG
Conditions at: GMMN (NOUASSEUR/CASABL, MA) observed 2100 UTC 22 March 2019
Temperature: 14.0°C (57°F)
Dewpoint: 11.0°C (52°F) [RH = 82%]
Pressure (altimeter): 30.00 inches Hg (1016.0 mb)
Winds: variable direction winds at 2 MPH (2 knots; 1.0 m/s)
Visibility: 6 or more miles (10+ km)
Ceiling: ceiling and visibility are OK
Clouds: unknown
Weather: no significant weather observed at this time

METAR text: GMMN 222030Z 32004KT 280V360 CAVOK 15/10 Q1016 NOSIG
Conditions at: GMMN (NOUASSEUR/CASABL, MA) observed 2030 UTC 22 March 2019
Temperature: 15.0°C (59°F)
Dewpoint: 10.0°C (50°F) [RH = 72%]
Pressure (altimeter): 30.00 inches Hg (1016.0 mb)
Winds: from the NW (320 degrees) at 5 MPH (4 knots; 2.1 m/s)
Visibility: 6 or more miles (10+ km)
Ceiling: ceiling and visibility are OK
Clouds: unknown
Weather: no significant weather observed at this time

METAR text: GMMN 222000Z 01008KT CAVOK 16/11 Q1015 NOSIG
Conditions at: GMMN (NOUASSEUR/CASABL, MA) observed 2000 UTC 22 March 2019
Temperature: 16.0°C (61°F)
Dewpoint: 11.0°C (52°F) [RH = 72%]
Pressure (altimeter): 29.97 inches Hg (1015.0 mb)
Winds: from the N (10 degrees) at 9 MPH (8 knots; 4.1 m/s)
Visibility: 6 or more miles (10+ km)
Ceiling: ceiling and visibility are OK
Clouds: unknown
Weather: no significant weather observed at this time

METAR text: GMMN 221930Z 01009KT CAVOK 17/11 Q1015 NOSIG
Conditions at: GMMN (NOUASSEUR/CASABL, MA) observed 1930 UTC 22 March 2019
Temperature: 17.0°C (63°F)
Dewpoint: 11.0°C (52°F) [RH = 68%]
Pressure (altimeter): 29.97 inches Hg (1015.0 mb)
Winds: from the N (10 degrees) at 10 MPH (9 knots; 4.6 m/s)
Visibility: 6 or more miles (10+ km)
Ceiling: ceiling and visibility are OK
Clouds: unknown
Weather: no significant weather observed at this time

METAR text: GMMN 221900Z 01010KT CAVOK 17/11 Q1015 NOSIG
Conditions at: GMMN (NOUASSEUR/CASABL, MA) observed 1900 UTC 22 March 2019
Temperature: 17.0°C (63°F)
Dewpoint: 11.0°C (52°F) [RH = 68%]
Pressure (altimeter): 29.97 inches Hg (1015.0 mb)
Winds: from the N (10 degrees) at 12 MPH (10 knots; 5.1 m/s)
Visibility: 6 or more miles (10+ km)
Ceiling: ceiling and visibility are OK
Clouds: unknown
Weather: no significant weather observed at this time

METAR text: GMMN 221830Z 02012KT CAVOK 18/11 Q1015 NOSIG
Conditions at: GMMN (NOUASSEUR/CASABL, MA) observed 1830 UTC 22 March 2019
Temperature: 18.0°C (64°F)
Dewpoint: 11.0°C (52°F) [RH = 64%]
Pressure (altimeter): 29.97 inches Hg (1015.0 mb)
Winds: from the NNE (20 degrees) at 14 MPH (12 knots; 6.2 m/s)
Visibility: 6 or more miles (10+ km)
Ceiling: ceiling and visibility are OK
Clouds: unknown
Weather: no significant weather observed at this time

METAR text: GMMN 221800Z 02015KT CAVOK 19/10 Q1015 NOSIG
Conditions at: GMMN (NOUASSEUR/CASABL, MA) observed 1800 UTC 22 March 2019
Temperature: 19.0°C (66°F)
Dewpoint: 10.0°C (50°F) [RH = 56%]
Pressure (altimeter): 29.97 inches Hg (1015.0 mb)
Winds: from the NNE (20 degrees) at 17 MPH (15 knots; 7.7 m/s)
Visibility: 6 or more miles (10+ km)
Ceiling: ceiling and visibility are OK
Clouds: unknown
Weather: no significant weather observed at this time

METAR text: GMMN 221730Z 02015KT CAVOK 20/10 Q1015 NOSIG
Conditions at: GMMN (NOUASSEUR/CASABL, MA) observed 1730 UTC 22 March 2019
Temperature: 20.0°C (68°F)
Dewpoint: 10.0°C (50°F) [RH = 53%]
Pressure (altimeter): 29.97 inches Hg (1015.0 mb)
Winds: from the NNE (20 degrees) at 17 MPH (15 knots; 7.7 m/s)
Visibility: 6 or more miles (10+ km)
Ceiling: ceiling and visibility are OK
Clouds: unknown
Weather: no significant weather observed at this time

METAR text: GMMN 221700Z 02016KT CAVOK 21/08 Q1014 NOSIG
Conditions at: GMMN (NOUASSEUR/CASABL, MA) observed 1700 UTC 22 March 2019
Temperature: 21.0°C (70°F)
Dewpoint: 8.0°C (46°F) [RH = 43%]
Pressure (altimeter): 29.94 inches Hg (1014.0 mb)
Winds: from the NNE (20 degrees) at 18 MPH (16 knots; 8.2 m/s)
Visibility: 6 or more miles (10+ km)
Ceiling: ceiling and visibility are OK
Clouds: unknown
Weather: no significant weather observed at this time

METAR text: GMMN 221630Z 02016KT CAVOK 21/07 Q1014 NOSIG
Conditions at: GMMN (NOUASSEUR/CASABL, MA) observed 1630 UTC 22 March 2019
Temperature: 21.0°C (70°F)
Dewpoint: 7.0°C (45°F) [RH = 40%]
Pressure (altimeter): 29.94 inches Hg (1014.0 mb)
Winds: from the NNE (20 degrees) at 18 MPH (16 knots; 8.2 m/s)
Visibility: 6 or more miles (10+ km)
Ceiling: ceiling and visibility are OK
Clouds: unknown
Weather: no significant weather observed at this time

METAR text: GMMN 221600Z 01016KT CAVOK 22/06 Q1014 NOSIG
Conditions at: GMMN (NOUASSEUR/CASABL, MA) observed 1600 UTC 22 March 2019
Temperature: 22.0°C (72°F)
Dewpoint: 6.0°C (43°F) [RH = 35%]
Pressure (altimeter): 29.94 inches Hg (1014.0 mb)
Winds: from the N (10 degrees) at 18 MPH (16 knots; 8.2 m/s)
Visibility: 6 or more miles (10+ km)
Ceiling: ceiling and visibility are OK
Clouds: unknown
Weather: no significant weather observed at this time

METAR text: GMMN 221530Z 01017KT 350V050 CAVOK 23/05 Q1014 NOSIG
Conditions at: GMMN (NOUASSEUR/CASABL, MA) observed 1530 UTC 22 March 2019
Temperature: 23.0°C (73°F)
Dewpoint: 5.0°C (41°F) [RH = 31%]
Pressure (altimeter): 29.94 inches Hg (1014.0 mb)
Winds: from the N (10 degrees) at 20 MPH (17 knots; 8.7 m/s)
Visibility: 6 or more miles (10+ km)
Ceiling: ceiling and visibility are OK
Clouds: unknown
Weather: no significant weather observed at this time

METAR text: GMMN 221500Z 02015KT CAVOK 23/05 Q1014 NOSIG
Conditions at: GMMN (NOUASSEUR/CASABL, MA) observed 1500 UTC 22 March 2019
Temperature: 23.0°C (73°F)
Dewpoint: 5.0°C (41°F) [RH = 31%]
Pressure (altimeter): 29.94 inches Hg (1014.0 mb)
Winds: from the NNE (20 degrees) at 17 MPH (15 knots; 7.7 m/s)
Visibility: 6 or more miles (10+ km)
Ceiling: ceiling and visibility are OK
Clouds: unknown
Weather: no significant weather observed at this time

METAR text: GMMN 221430Z 02014KT 360V070 CAVOK 23/04 Q1015 NOSIG
Conditions at: GMMN (NOUASSEUR/CASABL, MA) observed 1430 UTC 22 March 2019
Temperature: 23.0°C (73°F)
Dewpoint: 4.0°C (39°F) [RH = 29%]
Pressure (altimeter): 29.97 inches Hg (1015.0 mb)
Winds: from the NNE (20 degrees) at 16 MPH (14 knots; 7.2 m/s)
Visibility: 6 or more miles (10+ km)
Ceiling: ceiling and visibility are OK
Clouds: unknown
Weather: no significant weather observed at this time

METAR text: GMMN 221400Z 36012KT 330V030 CAVOK 24/04 Q1015 NOSIG
Conditions at: GMMN (NOUASSEUR/CASABL, MA) observed 1400 UTC 22 March 2019
Temperature: 24.0°C (75°F)
Dewpoint: 4.0°C (39°F) [RH = 27%]
Pressure (altimeter): 29.97 inches Hg (1015.0 mb)
Winds: from the N (360 degrees) at 14 MPH (12 knots; 6.2 m/s)
Visibility: 6 or more miles (10+ km)
Ceiling: ceiling and visibility are OK
Clouds: unknown
Weather: no significant weather observed at this time

METAR text: GMMN 221330Z VRB04KT CAVOK 25/01 Q1016 NOSIG
Conditions at: GMMN (NOUASSEUR/CASABL, MA) observed 1330 UTC 22 March 2019
Temperature: 25.0°C (77°F)
Dewpoint: 1.0°C (34°F) [RH = 21%]
Pressure (altimeter): 30.00 inches Hg (1016.0 mb)
Winds: variable direction winds at 5 MPH (4 knots; 2.1 m/s)
Visibility: 6 or more miles (10+ km)
Ceiling: ceiling and visibility are OK
Clouds: unknown
Weather: no significant weather observed at this time

METAR text: GMMN 221300Z VRB05KT CAVOK 24/01 Q1016 NOSIG
Conditions at: GMMN (NOUASSEUR/CASABL, MA) observed 1300 UTC 22 March 2019
Temperature: 24.0°C (75°F)
Dewpoint: 1.0°C (34°F) [RH = 22%]
Pressure (altimeter): 30.00 inches Hg (1016.0 mb)
Winds: variable direction winds at 6 MPH (5 knots; 2.6 m/s)
Visibility: 6 or more miles (10+ km)
Ceiling: ceiling and visibility are OK
Clouds: unknown
Weather: no significant weather observed at this time

METAR text: GMMN 221230Z 10005KT 030V170 CAVOK 24/00 Q1016 NOSIG
Conditions at: GMMN (NOUASSEUR/CASABL, MA) observed 1230 UTC 22 March 2019
Temperature: 24.0°C (75°F)
Dewpoint: 0.0°C (32°F) [RH = 20%]
Pressure (altimeter): 30.00 inches Hg (1016.0 mb)
Winds: from the E (100 degrees) at 6 MPH (5 knots; 2.6 m/s)
Visibility: 6 or more miles (10+ km)
Ceiling: ceiling and visibility are OK
Clouds: unknown
Weather: no significant weather observed at this time

METAR text: GMMN 221200Z VRB03KT CAVOK 23/M00 Q1017 NOSIG
Conditions at: GMMN (NOUASSEUR/CASABL, MA) observed 1200 UTC 22 March 2019
Temperature: 23.0°C (73°F)
Dewpoint: 0.0°C (32°F) [RH = 22%]
Pressure (altimeter): 30.03 inches Hg (1017.0 mb)
Winds: variable direction winds at 3 MPH (3 knots; 1.5 m/s)
Visibility: 6 or more miles (10+ km)
Ceiling: ceiling and visibility are OK
Clouds: unknown
Weather: no significant weather observed at this time

METAR text: GMMN 221130Z 36005KT 290V040 CAVOK 22/00 Q1017 NOSIG
Conditions at: GMMN (NOUASSEUR/CASABL, MA) observed 1130 UTC 22 March 2019
Temperature: 22.0°C (72°F)
Dewpoint: 0.0°C (32°F) [RH = 23%]
Pressure (altimeter): 30.03 inches Hg (1017.0 mb)
Winds: from the N (360 degrees) at 6 MPH (5 knots; 2.6 m/s)
Visibility: 6 or more miles (10+ km)
Ceiling: ceiling and visibility are OK
Clouds: unknown
Weather: no significant weather observed at this time

METAR text: GMMN 221100Z 36004KT 300V080 CAVOK 21/01 Q1017 NOSIG
Conditions at: GMMN (NOUASSEUR/CASABL, MA) observed 1100 UTC 22 March 2019
Temperature: 21.0°C (70°F)
Dewpoint: 1.0°C (34°F) [RH = 26%]
Pressure (altimeter): 30.03 inches Hg (1017.0 mb)
Winds: from the N (360 degrees) at 5 MPH (4 knots; 2.1 m/s)
Visibility: 6 or more miles (10+ km)
Ceiling: ceiling and visibility are OK
Clouds: unknown
Weather: no significant weather observed at this time

METAR text: GMMN 221030Z 06003KT 360V110 CAVOK 20/01 Q1017 NOSIG
Conditions at: GMMN (NOUASSEUR/CASABL, MA) observed 1030 UTC 22 March 2019
Temperature: 20.0°C (68°F)
Dewpoint: 1.0°C (34°F) [RH = 28%]
Pressure (altimeter): 30.03 inches Hg (1017.0 mb)
Winds: from the ENE (60 degrees) at 3 MPH (3 knots; 1.5 m/s)
Visibility: 6 or more miles (10+ km)
Ceiling: ceiling and visibility are OK
Clouds: unknown
Weather: no significant weather observed at this time

Forecast for: GMMN (NOUASSEUR/CASABL, MA)
Text: TAF GMMN 231100Z 2312/2418 18006KT CAVOK
Forecast period: 1200 to 1800 UTC 23 March 2019
Forecast type: FROM: standard forecast or significant change
Winds: from the S (180 degrees) at 7 MPH (6 knots; 3.1 m/s)
Visibility: 6 or more miles 10+ km)
Ceiling: unknown
Clouds: missing
Weather: NSW  (no significant weather)
Text: TEMPO 2314/2318 36010KT
Forecast period: 1400 to 1800 UTC 23 March 2019
Forecast type: TEMPORARY: The following changes expected for less than half the time period
Winds: from the N (360 degrees) at 12 MPH (10 knots; 5.1 m/s)
Visibility: missing
Ceiling: unknown
Clouds: missing
Weather: no significant weather forecast for this period
Text: BECMG 2318/2320 SCT016 SCT200
Forecast period: 1800 UTC 23 March 2019 to 1200 UTC 24 March 2019
Forecast type: BECOMING: Conditions expected to become as follows by 2000 UTC 23 March 2019
Winds: from the S (180 degrees) at 7 MPH (6 knots; 3.1 m/s)
Visibility: 6 or more miles 10+ km)
Ceiling: at least 12,000 feet AGL
Clouds: scattered clouds at 1600 feet AGL
scattered clouds at 20000 feet AGL
Weather: NSW  (no significant weather)
Text: TEMPO 2400/2408 VRB02KT BKN016 BKN200
Forecast period: 0000 to 0800 UTC 24 March 2019
Forecast type: TEMPORARY: The following changes expected for less than half the time period
Winds: variable direction winds at 2 MPH (2 knots; 1.0 m/s)
Visibility: missing
Ceiling: 1600 feet AGL
Clouds: broken clouds at 1600 feet AGL
broken clouds at 20000 feet AGL
Weather: no significant weather forecast for this period
Text: BECMG 2412/2414 10006KT
Forecast period: 1200 to 1800 UTC 24 March 2019
Forecast type: BECOMING: Conditions expected to become as follows by 1400 UTC 24 March 2019
Winds: from the E (100 degrees) at 7 MPH (6 knots; 3.1 m/s)
Visibility: 6 or more miles 10+ km)
Ceiling: at least 12,000 feet AGL
Clouds: scattered clouds at 1600 feet AGL
scattered clouds at 20000 feet AGL
Weather: NSW  (no significant weather)
Text: PROB30
Forecast period: 1500 to 1800 UTC 24 March 2019
Forecast type: TEMPORARY: The following changes expected for less than half the time period
Visibility: 4 miles (6 km)
Ceiling: 1600 feet AGL
Clouds: broken clouds at 1600 feet AGL
Weather: RA  (moderate rain)